sensor_id;sensor_type;location;lat;lon;timestamp;pressure;altitude;pressure_sealevel;temperature
77355;BMP280;66422;51.202;19.936;2023-10-19T00:05:20;98854.69;;;0.72
77355;BMP280;66422;51.202;19.936;2023-10-19T00:20:39;98848.52;;;0.63
77355;BMP280;66422;51.202;19.936;2023-10-19T00:36:06;98831.73;;;0.52
77355;BMP280;66422;51.202;19.936;2023-10-19T00:51:30;98826.30;;;0.54
77355;BMP280;66422;51.202;19.936;2023-10-19T01:06:53;98792.98;;;0.11
77355;BMP280;66422;51.202;19.936;2023-10-19T01:22:49;98756.48;;;0.53
77355;BMP280;66422;51.202;19.936;2023-10-19T01:38:27;98748.86;;;0.66
77355;BMP280;66422;51.202;19.936;2023-10-19T01:53:50;98733.88;;;0.36
77355;BMP280;66422;51.202;19.936;2023-10-19T02:09:12;98721.25;;;0.64
77355;BMP280;66422;51.202;19.936;2023-10-19T02:24:43;98697.04;;;0.66
77355;BMP280;66422;51.202;19.936;2023-10-19T02:40:03;98672.14;;;0.77
77355;BMP280;66422;51.202;19.936;2023-10-19T02:55:32;98645.45;;;0.81
77355;BMP280;66422;51.202;19.936;2023-10-19T03:10:51;98626.29;;;0.77
77355;BMP280;66422;51.202;19.936;2023-10-19T03:26:23;98585.45;;;0.54
77355;BMP280;66422;51.202;19.936;2023-10-19T03:41:56;98547.05;;;0.90
77355;BMP280;66422;51.202;19.936;2023-10-19T03:57:18;98527.91;;;0.87
77355;BMP280;66422;51.202;19.936;2023-10-19T04:12:45;98527.33;;;0.75
77355;BMP280;66422;51.202;19.936;2023-10-19T04:28:04;98509.55;;;0.61
77355;BMP280;66422;51.202;19.936;2023-10-19T04:43:24;98481.38;;;0.73
77355;BMP280;66422;51.202;19.936;2023-10-19T04:58:44;98467.21;;;0.40
77355;BMP280;66422;51.202;19.936;2023-10-19T05:14:03;98460.86;;;0.13
77355;BMP280;66422;51.202;19.936;2023-10-19T05:29:25;98444.23;;;0.38
77355;BMP280;66422;51.202;19.936;2023-10-19T05:44:45;98438.27;;;0.29
77355;BMP280;66422;51.202;19.936;2023-10-19T06:00:08;98435.64;;;0.72
77355;BMP280;66422;51.202;19.936;2023-10-19T06:15:32;98414.05;;;1.39
77355;BMP280;66422;51.202;19.936;2023-10-19T06:30:51;98406.20;;;2.27
77355;BMP280;66422;51.202;19.936;2023-10-19T06:46:11;98395.19;;;2.68
77355;BMP280;66422;51.202;19.936;2023-10-19T07:01:32;98388.00;;;2.84
77355;BMP280;66422;51.202;19.936;2023-10-19T07:16:52;98375.59;;;3.33
77355;BMP280;66422;51.202;19.936;2023-10-19T07:32:11;98351.39;;;4.00
77355;BMP280;66422;51.202;19.936;2023-10-19T07:47:33;98332.11;;;5.54
77355;BMP280;66422;51.202;19.936;2023-10-19T08:02:52;98312.95;;;7.11
77355;BMP280;66422;51.202;19.936;2023-10-19T08:18:14;98302.45;;;7.84
77355;BMP280;66422;51.202;19.936;2023-10-19T08:33:34;98273.36;;;8.05
77355;BMP280;66422;51.202;19.936;2023-10-19T08:48:58;98235.23;;;8.18
77355;BMP280;66422;51.202;19.936;2023-10-19T09:04:18;98203.53;;;8.49
77355;BMP280;66422;51.202;19.936;2023-10-19T09:34:57;98170.55;;;10.35
77355;BMP280;66422;51.202;19.936;2023-10-19T09:50:21;98161.75;;;9.77
77355;BMP280;66422;51.202;19.936;2023-10-19T10:37:00;98111.33;;;10.67
77355;BMP280;66422;51.202;19.936;2023-10-19T10:52:36;98108.66;;;11.29
77355;BMP280;66422;51.202;19.936;2023-10-19T11:08:13;98084.94;;;11.51
77355;BMP280;66422;51.202;19.936;2023-10-19T11:23:47;98060.15;;;11.24
77355;BMP280;66422;51.202;19.936;2023-10-19T11:39:07;98037.37;;;10.93
77355;BMP280;66422;51.202;19.936;2023-10-19T11:54:31;98036.05;;;11.11
77355;BMP280;66422;51.202;19.936;2023-10-19T12:09:52;98033.89;;;11.21
77355;BMP280;66422;51.202;19.936;2023-10-19T12:25:12;98020.95;;;10.87
77355;BMP280;66422;51.202;19.936;2023-10-19T12:40:32;98012.73;;;10.91
77355;BMP280;66422;51.202;19.936;2023-10-19T12:55:55;97999.46;;;10.55
77355;BMP280;66422;51.202;19.936;2023-10-19T13:11:15;97986.14;;;10.26
77355;BMP280;66422;51.202;19.936;2023-10-19T13:26:35;97974.61;;;10.19
77355;BMP280;66422;51.202;19.936;2023-10-19T13:41:55;97947.36;;;9.99
77355;BMP280;66422;51.202;19.936;2023-10-19T13:57:15;97911.79;;;9.96
77355;BMP280;66422;51.202;19.936;2023-10-19T14:12:35;97843.63;;;9.30
77355;BMP280;66422;51.202;19.936;2023-10-19T14:27:56;97833.80;;;9.07
77355;BMP280;66422;51.202;19.936;2023-10-19T14:43:19;97820.82;;;8.90
77355;BMP280;66422;51.202;19.936;2023-10-19T14:58:39;97823.55;;;9.12
77355;BMP280;66422;51.202;19.936;2023-10-19T15:13:58;97803.56;;;9.28
77355;BMP280;66422;51.202;19.936;2023-10-19T15:29:18;97809.39;;;9.11
77355;BMP280;66422;51.202;19.936;2023-10-19T15:44:38;97815.71;;;9.28
77355;BMP280;66422;51.202;19.936;2023-10-19T15:59:58;97802.38;;;9.46
77355;BMP280;66422;51.202;19.936;2023-10-19T16:15:17;97806.98;;;9.49
77355;BMP280;66422;51.202;19.936;2023-10-19T16:30:37;97796.11;;;9.36
77355;BMP280;66422;51.202;19.936;2023-10-19T16:45:58;97786.26;;;9.30
77355;BMP280;66422;51.202;19.936;2023-10-19T17:01:19;97768.17;;;9.67
77355;BMP280;66422;51.202;19.936;2023-10-19T17:16:40;97770.54;;;9.51
77355;BMP280;66422;51.202;19.936;2023-10-19T17:31:59;97744.27;;;9.68
77355;BMP280;66422;51.202;19.936;2023-10-19T17:47:19;97726.21;;;9.80
77355;BMP280;66422;51.202;19.936;2023-10-19T18:02:38;97706.60;;;9.56
77355;BMP280;66422;51.202;19.936;2023-10-19T18:17:58;97707.29;;;9.52
77355;BMP280;66422;51.202;19.936;2023-10-19T18:33:20;97696.56;;;9.66
77355;BMP280;66422;51.202;19.936;2023-10-19T18:48:41;97681.80;;;9.72
77355;BMP280;66422;51.202;19.936;2023-10-19T19:04:01;97678.04;;;9.67
77355;BMP280;66422;51.202;19.936;2023-10-19T19:19:20;97664.78;;;9.67
77355;BMP280;66422;51.202;19.936;2023-10-19T19:34:40;97656.13;;;9.97
77355;BMP280;66422;51.202;19.936;2023-10-19T19:49:59;97647.02;;;10.23
77355;BMP280;66422;51.202;19.936;2023-10-19T20:05:19;97632.79;;;10.31
77355;BMP280;66422;51.202;19.936;2023-10-19T20:20:40;97598.77;;;10.15
77355;BMP280;66422;51.202;19.936;2023-10-19T20:35:59;97589.25;;;10.29
77355;BMP280;66422;51.202;19.936;2023-10-19T20:51:20;97572.91;;;10.28
77355;BMP280;66422;51.202;19.936;2023-10-19T21:06:39;97538.27;;;10.38
77355;BMP280;66422;51.202;19.936;2023-10-19T21:21:59;97527.17;;;10.29
77355;BMP280;66422;51.202;19.936;2023-10-19T21:37:20;97500.31;;;10.47
77355;BMP280;66422;51.202;19.936;2023-10-19T21:52:42;97477.34;;;10.34
77355;BMP280;66422;51.202;19.936;2023-10-19T22:08:02;97455.02;;;10.44
77355;BMP280;66422;51.202;19.936;2023-10-19T22:23:22;97480.16;;;10.45
77355;BMP280;66422;51.202;19.936;2023-10-19T22:38:43;97488.08;;;10.71
77355;BMP280;66422;51.202;19.936;2023-10-19T22:54:03;97488.48;;;10.52
77355;BMP280;66422;51.202;19.936;2023-10-19T23:09:23;97462.80;;;10.68
77355;BMP280;66422;51.202;19.936;2023-10-19T23:24:46;97492.74;;;10.81
77355;BMP280;66422;51.202;19.936;2023-10-19T23:40:09;97487.20;;;10.78
77355;BMP280;66422;51.202;19.936;2023-10-19T23:55:32;97487.58;;;10.97
